Forestville, Canada
Current Conditions -  °F | °C
As of 1:00 PM on Friday 24 Oct 2014 (Local Time) from CYYY Reporting Station
Broken Clouds Broken Clouds  
Wind Chill:   Ceiling: 8000
Heat Index:   Visibility: 30mi
Dew Point:   Wind: 18mph
Humidity: 66%   Direction: 60°ENE
Pressure: 29.87"   Gusts: 25mph
Location:  48.73°N, 69.07°W
Report Text: CYYY 241700Z 06016G22KT 30SM FEW020 BKN080 07/01 A2987 RMK SC2AC5 SLP118
Loading
Personal Weather Stations






























Interactive Weather Map
Tropical Storm Tracking
New forecast layout! Learn more

10-Day Weather Forecast

Advertisements
Track Severe Weather on mobile